createdAt,value
2022-10-14T00:00:43.408Z,17.35
2022-10-14T00:03:10.058Z,17.39
2022-10-14T00:05:40.115Z,17.33
2022-10-14T00:08:08.926Z,17.31
2022-10-14T00:10:39.685Z,17.24
2022-10-14T00:13:06.622Z,17.28
2022-10-14T00:15:40.658Z,17.32
2022-10-14T00:18:09.466Z,17.31
2022-10-14T00:20:36.390Z,17.31
2022-10-14T00:23:03.212Z,17.30
2022-10-14T00:25:30.127Z,17.32
2022-10-14T00:27:56.787Z,17.27
2022-10-14T00:30:23.463Z,17.23
2022-10-14T00:32:49.995Z,17.23
2022-10-14T00:35:16.646Z,17.20
2022-10-14T00:37:43.231Z,17.22
2022-10-14T00:40:10.408Z,17.24
2022-10-14T00:42:36.917Z,17.17
2022-10-14T00:45:12.353Z,17.16
2022-10-14T00:47:39.348Z,17.18
2022-10-14T00:50:09.463Z,17.19
2022-10-14T00:52:36.158Z,17.19
2022-10-14T00:55:07.017Z,17.18
2022-10-14T00:57:35.408Z,17.15
2022-10-14T01:00:08.744Z,17.19
2022-10-14T01:02:35.813Z,17.20
2022-10-14T01:05:03.403Z,17.21
2022-10-14T01:07:32.937Z,17.20
2022-10-14T01:10:09.660Z,17.16
2022-10-14T01:12:57.672Z,17.11
2022-10-14T01:16:09.370Z,17.13
2022-10-14T01:19:05.929Z,17.14
2022-10-14T01:21:40.177Z,17.13
2022-10-14T01:24:26.337Z,17.13
2022-10-14T01:27:15.565Z,17.10
2022-10-14T01:30:10.285Z,17.12
2022-10-14T01:32:48.575Z,17.15
2022-10-14T01:35:31.163Z,17.10
2022-10-14T01:38:06.742Z,17.08
2022-10-14T01:40:37.536Z,17.11
2022-10-14T01:43:04.900Z,17.10
2022-10-14T01:45:33.972Z,17.06
2022-10-14T01:48:01.858Z,17.11
2022-10-14T01:50:29.193Z,17.10
2022-10-14T01:53:04.321Z,17.11
2022-10-14T01:55:35.571Z,17.08
2022-10-14T01:58:02.634Z,17.01
2022-10-14T02:00:29.461Z,17.01
2022-10-14T02:03:00.979Z,17.03
2022-10-14T02:05:27.425Z,16.99
2022-10-14T02:08:03.110Z,16.98
2022-10-14T02:10:40.858Z,16.93
2022-10-14T02:13:26.835Z,16.94
2022-10-14T02:16:19.821Z,16.98
2022-10-14T02:19:02.467Z,17.01
2022-10-14T02:21:35.502Z,16.94
2022-10-14T02:24:07.015Z,16.90
2022-10-14T02:26:34.430Z,16.91
2022-10-14T02:29:01.861Z,16.89
2022-10-14T02:31:28.542Z,16.84
2022-10-14T02:33:58.822Z,16.91
2022-10-14T02:36:26.415Z,16.86
2022-10-14T02:38:55.175Z,16.80
2022-10-14T02:41:23.140Z,16.83
2022-10-14T02:43:49.997Z,16.84
2022-10-14T02:46:20.238Z,16.80
2022-10-14T02:48:46.876Z,16.80
2022-10-14T02:51:13.441Z,16.86
2022-10-14T02:53:40.028Z,16.83
2022-10-14T02:56:07.242Z,16.80
2022-10-14T02:58:34.327Z,16.73
2022-10-14T03:01:00.858Z,16.67
2022-10-14T03:03:28.348Z,16.70
2022-10-14T03:05:55.138Z,16.68
2022-10-14T03:08:21.782Z,16.73
2022-10-14T03:10:48.572Z,16.72
2022-10-14T03:13:16.071Z,16.72
2022-10-14T03:15:49.452Z,16.66
2022-10-14T03:18:18.058Z,16.65
2022-10-14T03:20:47.657Z,16.71
2022-10-14T03:23:22.599Z,16.76
2022-10-14T03:25:52.689Z,16.70
2022-10-14T03:28:26.465Z,16.73
2022-10-14T03:31:04.217Z,16.70
2022-10-14T03:33:44.398Z,16.67
2022-10-14T03:36:13.077Z,16.65
2022-10-14T03:38:49.928Z,16.60
2022-10-14T03:41:29.954Z,16.57
2022-10-14T03:43:56.849Z,16.57
2022-10-14T03:46:23.501Z,16.56
2022-10-14T03:48:51.204Z,16.52
2022-10-14T03:51:18.383Z,16.55
2022-10-14T03:53:46.043Z,16.48
2022-10-14T03:56:17.392Z,16.55
2022-10-14T03:58:47.489Z,16.55
2022-10-14T04:01:14.803Z,16.50
2022-10-14T04:04:13.826Z,16.58
2022-10-14T04:06:40.910Z,16.57
2022-10-14T04:09:08.545Z,16.56
2022-10-14T04:11:38.991Z,16.57
2022-10-14T04:14:09.742Z,16.56
2022-10-14T04:16:49.527Z,16.51
2022-10-14T04:19:17.409Z,16.50
2022-10-14T04:21:44.619Z,16.48
2022-10-14T04:24:11.548Z,16.52
2022-10-14T04:26:52.123Z,16.51
2022-10-14T04:29:41.997Z,16.52
2022-10-14T04:32:15.761Z,16.52
2022-10-14T04:34:42.692Z,16.51
2022-10-14T04:37:12.543Z,16.42
2022-10-14T04:39:57.825Z,16.47
2022-10-14T04:42:26.242Z,16.52
2022-10-14T04:44:58.328Z,16.50
2022-10-14T04:47:37.823Z,16.49
2022-10-14T04:50:04.837Z,16.52
2022-10-14T04:52:32.592Z,16.51
2022-10-14T04:55:05.922Z,16.48
2022-10-14T04:57:36.648Z,16.48
2022-10-14T05:00:04.842Z,16.56
2022-10-14T05:02:50.140Z,16.52
2022-10-14T05:05:16.968Z,16.50
2022-10-14T05:07:46.858Z,16.47
2022-10-14T05:10:22.143Z,16.44
2022-10-14T05:12:51.310Z,16.43
2022-10-14T05:15:19.572Z,16.41
2022-10-14T05:18:11.505Z,16.45
2022-10-14T05:20:59.424Z,16.40
2022-10-14T05:23:36.844Z,16.40
2022-10-14T05:26:03.688Z,16.39
2022-10-14T05:28:31.026Z,16.38
2022-10-14T05:30:57.808Z,16.40
2022-10-14T05:33:24.389Z,16.33
2022-10-14T05:35:58.932Z,16.41
2022-10-14T05:38:31.800Z,16.37
2022-10-14T05:40:58.538Z,16.38
2022-10-14T05:43:30.966Z,16.42
2022-10-14T05:46:00.445Z,16.46
2022-10-14T05:48:29.338Z,16.46
2022-10-14T05:51:01.315Z,16.47
2022-10-14T05:53:28.830Z,16.45
2022-10-14T05:56:10.919Z,16.43
2022-10-14T05:58:39.933Z,16.47
2022-10-14T06:01:09.731Z,16.46
2022-10-14T06:03:39.521Z,16.50
2022-10-14T06:06:07.478Z,16.50
2022-10-14T06:08:33.979Z,16.54
2022-10-14T06:11:03.266Z,16.57
2022-10-14T06:13:30.041Z,16.60
2022-10-14T06:16:05.982Z,16.57
2022-10-14T06:18:33.267Z,16.58
2022-10-14T06:21:00.323Z,16.57
2022-10-14T06:23:27.294Z,16.61
2022-10-14T06:25:53.835Z,16.61
2022-10-14T06:28:20.453Z,16.60
2022-10-14T06:30:54.007Z,16.67
2022-10-14T06:33:21.361Z,16.66
2022-10-14T06:35:47.949Z,16.68
2022-10-14T06:38:15.086Z,16.66
2022-10-14T06:40:41.647Z,16.69
2022-10-14T06:43:08.235Z,16.66
2022-10-14T06:45:34.819Z,16.64
2022-10-14T06:48:01.535Z,16.71
2022-10-14T06:50:28.044Z,16.74
2022-10-14T06:52:54.718Z,16.78
2022-10-14T06:55:21.304Z,16.79
2022-10-14T06:57:47.811Z,16.80
2022-10-14T07:00:14.782Z,16.88
2022-10-14T07:02:41.512Z,16.91
2022-10-14T07:05:08.390Z,16.90
2022-10-14T07:07:34.911Z,16.84
2022-10-14T07:10:01.529Z,16.92
2022-10-14T07:12:28.131Z,16.94
2022-10-14T07:14:54.622Z,17.03
2022-10-14T07:17:21.377Z,17.05
2022-10-14T07:19:48.059Z,17.14
2022-10-14T07:22:16.538Z,17.16
2022-10-14T07:24:43.778Z,17.31
2022-10-14T07:27:10.769Z,17.32
2022-10-14T07:29:37.399Z,17.38
2022-10-14T07:32:04.931Z,17.44
2022-10-14T07:34:33.593Z,17.46
2022-10-14T07:37:00.513Z,17.49
2022-10-14T07:39:27.615Z,17.50
2022-10-14T07:41:54.316Z,17.52
2022-10-14T07:44:23.623Z,17.51
2022-10-14T07:46:53.106Z,17.43
2022-10-14T07:49:20.502Z,17.47
2022-10-14T07:51:47.809Z,17.36
2022-10-14T07:54:17.277Z,17.43
2022-10-14T07:56:44.483Z,17.36
2022-10-14T07:59:11.849Z,17.43
2022-10-14T08:01:38.675Z,17.44
2022-10-14T08:04:05.523Z,17.47
2022-10-14T08:06:32.213Z,17.46
2022-10-14T08:08:58.739Z,17.45
2022-10-14T08:11:27.301Z,17.44
2022-10-14T08:13:54.191Z,17.49
2022-10-14T08:16:23.373Z,17.52
2022-10-14T08:18:50.669Z,17.54
2022-10-14T08:21:18.675Z,17.62
2022-10-14T08:23:45.394Z,17.68
2022-10-14T08:26:21.379Z,17.73
2022-10-14T08:28:49.283Z,17.82
2022-10-14T08:31:16.459Z,17.92
2022-10-14T08:33:43.094Z,17.92
2022-10-14T08:36:09.878Z,18.05
2022-10-14T08:38:36.471Z,18.09
2022-10-14T08:41:12.252Z,18.23
2022-10-14T08:43:42.521Z,18.34
2022-10-14T08:46:25.292Z,18.49
2022-10-14T08:49:06.614Z,18.62
2022-10-14T08:51:33.102Z,18.66
2022-10-14T08:54:06.463Z,18.70
2022-10-14T08:56:35.290Z,18.81
2022-10-14T08:59:06.866Z,18.90
2022-10-14T09:01:36.261Z,18.99
2022-10-14T09:04:07.643Z,19.03
2022-10-14T09:06:35.830Z,19.03
2022-10-14T09:09:24.168Z,19.00
2022-10-14T09:11:54.656Z,19.00
2022-10-14T09:14:25.893Z,19.02
2022-10-14T09:17:00.345Z,19.06
2022-10-14T09:19:28.661Z,19.09
2022-10-14T09:21:55.652Z,19.17
2022-10-14T09:24:36.735Z,19.16
2022-10-14T09:27:06.495Z,19.14
2022-10-14T09:29:40.956Z,19.18
2022-10-14T09:32:12.349Z,19.19
2022-10-14T09:34:41.279Z,19.26
2022-10-14T09:37:22.294Z,19.27
2022-10-14T09:39:49.414Z,19.35
2022-10-14T09:42:20.403Z,19.44
2022-10-14T09:45:04.653Z,19.48
2022-10-14T09:47:31.390Z,19.54
2022-10-14T09:50:00.602Z,19.61
2022-10-14T09:52:34.014Z,19.64
2022-10-14T09:55:01.579Z,19.70
2022-10-14T09:57:28.395Z,19.79
2022-10-14T10:00:04.957Z,19.85
2022-10-14T10:02:40.649Z,19.95
2022-10-14T10:05:28.685Z,20.08
2022-10-14T10:08:17.658Z,19.99
2022-10-14T10:11:05.461Z,20.01
2022-10-14T10:13:43.280Z,20.12
2022-10-14T10:16:25.071Z,20.04
2022-10-14T10:18:54.027Z,20.04
2022-10-14T10:21:30.137Z,20.05
2022-10-14T10:23:59.138Z,20.02
2022-10-14T10:26:31.586Z,20.05
2022-10-14T10:29:03.016Z,20.13
2022-10-14T10:31:51.117Z,20.21
2022-10-14T10:34:39.163Z,20.31
2022-10-14T10:37:22.963Z,20.31
2022-10-14T10:40:08.489Z,20.39
2022-10-14T10:42:54.401Z,20.48
2022-10-14T10:45:50.020Z,20.58
2022-10-14T10:48:30.455Z,20.57
2022-10-14T10:51:00.781Z,20.61
2022-10-14T10:53:55.721Z,20.65
2022-10-14T10:56:46.773Z,20.64
2022-10-14T10:59:44.316Z,20.69
2022-10-14T11:02:17.244Z,20.80
2022-10-14T11:04:46.252Z,20.83
2022-10-14T11:07:48.827Z,20.89
2022-10-14T11:10:34.141Z,21.07
2022-10-14T11:13:20.914Z,21.03
2022-10-14T11:15:51.198Z,21.20
2022-10-14T11:18:35.955Z,21.36
2022-10-14T11:21:09.858Z,21.50
2022-10-14T11:23:59.606Z,21.57
2022-10-14T11:26:38.391Z,21.55
2022-10-14T11:29:23.294Z,21.45
2022-10-14T11:32:17.669Z,21.45
2022-10-14T11:34:53.933Z,21.36
2022-10-14T11:37:35.528Z,21.26
2022-10-14T11:40:18.606Z,21.25
2022-10-14T11:43:01.781Z,21.16
2022-10-14T11:45:52.484Z,21.68
2022-10-14T11:49:00.794Z,21.88
2022-10-14T11:51:38.781Z,21.83
2022-10-14T11:54:05.442Z,21.90
2022-10-14T11:56:37.868Z,21.94
2022-10-14T11:59:10.759Z,21.99
2022-10-14T12:01:41.219Z,22.00
2022-10-14T12:04:34.125Z,21.98
2022-10-14T12:07:19.951Z,21.97
2022-10-14T12:10:12.837Z,21.84
2022-10-14T12:12:40.327Z,21.90
2022-10-14T12:15:17.117Z,22.10
2022-10-14T12:17:48.066Z,22.31
2022-10-14T12:20:22.591Z,22.32
2022-10-14T12:22:50.029Z,22.51
2022-10-14T12:25:18.447Z,22.54
2022-10-14T12:27:45.307Z,22.95
2022-10-14T12:30:35.396Z,23.02
2022-10-14T12:33:07.945Z,22.98
2022-10-14T12:35:50.731Z,23.16
2022-10-14T12:38:20.110Z,23.18
2022-10-14T12:40:49.331Z,23.13
2022-10-14T12:43:19.504Z,23.22
2022-10-14T12:45:58.260Z,23.60
2022-10-14T12:48:27.107Z,24.05
2022-10-14T12:51:09.572Z,24.23
2022-10-14T12:53:37.061Z,24.59
2022-10-14T12:56:04.865Z,25.16
2022-10-14T12:58:41.830Z,25.69
2022-10-14T13:01:17.067Z,25.55
2022-10-14T13:03:54.208Z,25.65
2022-10-14T13:06:35.414Z,25.71
2022-10-14T13:09:11.320Z,25.27
2022-10-14T13:11:39.200Z,24.95
2022-10-14T13:14:53.976Z,24.89
2022-10-14T13:17:35.606Z,24.79
2022-10-14T13:20:04.404Z,24.52
2022-10-14T13:22:34.451Z,24.64
2022-10-14T13:25:08.022Z,24.85
2022-10-14T13:27:39.171Z,24.98
2022-10-14T13:30:24.838Z,24.18
2022-10-14T13:32:58.938Z,24.26
2022-10-14T13:35:43.326Z,24.45
2022-10-14T13:38:15.553Z,24.78
2022-10-14T13:40:49.181Z,25.32
2022-10-14T13:43:48.264Z,25.64
2022-10-14T13:46:22.562Z,25.98
2022-10-14T13:48:51.849Z,26.73
2022-10-14T13:51:32.012Z,26.62
2022-10-14T13:54:20.102Z,25.93
2022-10-14T13:57:19.896Z,27.06
2022-10-14T14:00:38.143Z,28.46
2022-10-14T14:02:39.596Z,29.46
2022-10-14T14:05:07.331Z,29.67
2022-10-14T14:08:22.231Z,30.81
2022-10-14T14:10:25.806Z,30.75
2022-10-14T14:12:52.734Z,29.82
2022-10-14T14:15:29.095Z,31.13
2022-10-14T14:17:55.717Z,30.92
2022-10-14T14:20:25.051Z,31.34
2022-10-14T14:22:53.203Z,31.66
2022-10-14T14:25:36.913Z,30.17
2022-10-14T14:28:13.354Z,32.49
2022-10-14T14:30:42.469Z,30.93
2022-10-14T14:33:14.606Z,32.16
2022-10-14T14:35:44.383Z,29.60
2022-10-14T14:38:25.277Z,28.70
2022-10-14T14:41:01.586Z,28.38
2022-10-14T14:43:34.733Z,28.95
2022-10-14T14:46:02.996Z,32.04
2022-10-14T14:48:30.686Z,34.20
2022-10-14T14:50:57.597Z,34.94
2022-10-14T14:53:29.467Z,34.08
2022-10-14T14:55:55.982Z,33.12
2022-10-14T14:58:31.657Z,33.26
2022-10-14T15:00:58.975Z,34.01
2022-10-14T15:03:27.894Z,33.62
2022-10-14T15:06:04.163Z,31.46
2022-10-14T15:08:36.641Z,31.05
2022-10-14T15:11:03.917Z,31.90
2022-10-14T15:13:39.792Z,32.36
2022-10-14T15:16:09.445Z,32.37
2022-10-14T15:18:37.718Z,32.63
2022-10-14T15:21:20.404Z,32.80
2022-10-14T15:23:49.817Z,32.64
2022-10-14T15:26:36.193Z,32.56
2022-10-14T15:29:08.770Z,32.03
2022-10-14T15:31:35.972Z,31.57
2022-10-14T15:34:03.197Z,30.82
2022-10-14T15:36:32.321Z,30.60
2022-10-14T15:39:01.317Z,29.81
2022-10-14T15:41:28.858Z,27.61
2022-10-14T15:43:55.398Z,26.67
2022-10-14T15:46:41.693Z,26.45
2022-10-14T15:49:16.922Z,26.07
2022-10-14T15:51:43.594Z,26.18
2022-10-14T15:54:12.443Z,26.13
2022-10-14T15:56:41.769Z,26.65
2022-10-14T15:59:08.352Z,26.27
2022-10-14T16:01:37.516Z,25.89
2022-10-14T16:04:04.324Z,25.46
2022-10-14T16:06:32.584Z,25.23
2022-10-14T16:08:59.191Z,24.85
2022-10-14T16:11:28.495Z,24.54
2022-10-14T16:13:55.684Z,24.20
2022-10-14T16:16:27.012Z,24.05
2022-10-14T16:18:54.117Z,23.99
2022-10-14T16:21:20.750Z,23.96
2022-10-14T16:23:47.426Z,23.87
2022-10-14T16:26:14.403Z,23.63
2022-10-14T16:28:41.018Z,23.50
2022-10-14T16:31:10.437Z,23.53
2022-10-14T16:33:38.343Z,23.48
2022-10-14T16:36:13.638Z,23.49
2022-10-14T16:38:40.178Z,23.36
2022-10-14T16:41:09.723Z,23.30
2022-10-14T16:43:36.503Z,23.11
2022-10-14T16:46:05.788Z,23.17
2022-10-14T16:48:33.497Z,22.93
2022-10-14T16:51:00.350Z,22.80
2022-10-14T16:53:41.419Z,22.78
2022-10-14T16:56:30.052Z,22.77
2022-10-14T16:58:57.150Z,22.58
2022-10-14T17:01:23.962Z,22.58
2022-10-14T17:03:50.591Z,22.50
2022-10-14T17:06:23.190Z,22.38
2022-10-14T17:08:50.936Z,22.36
2022-10-14T17:11:18.299Z,22.30
2022-10-14T17:13:45.062Z,22.33
2022-10-14T17:16:11.593Z,22.30
2022-10-14T17:18:38.963Z,22.19
2022-10-14T17:21:07.629Z,22.16
2022-10-14T17:23:35.629Z,22.49
2022-10-14T17:26:04.334Z,22.14
2022-10-14T17:28:31.392Z,21.98
2022-10-14T17:30:58.601Z,21.93
2022-10-14T17:33:26.103Z,21.89
2022-10-14T17:36:02.466Z,21.84
2022-10-14T17:38:30.203Z,21.83
2022-10-14T17:41:08.172Z,21.74
2022-10-14T17:43:36.714Z,21.67
2022-10-14T17:46:05.350Z,21.82
2022-10-14T17:48:33.130Z,21.96
2022-10-14T17:50:59.826Z,21.83
2022-10-14T17:53:26.316Z,21.81
2022-10-14T17:55:55.401Z,21.74
2022-10-14T17:58:24.291Z,21.73
2022-10-14T18:00:50.835Z,21.65
2022-10-14T18:03:18.379Z,21.60
2022-10-14T18:05:48.807Z,21.64
2022-10-14T18:08:15.743Z,21.50
2022-10-14T18:10:42.391Z,21.39
2022-10-14T18:13:08.939Z,21.23
2022-10-14T18:15:36.280Z,21.16
2022-10-14T18:18:02.958Z,21.16
2022-10-14T18:20:29.550Z,21.05
2022-10-14T18:22:56.437Z,21.14
2022-10-14T18:25:23.424Z,21.17
2022-10-14T18:27:50.253Z,21.34
2022-10-14T18:30:16.854Z,21.15
2022-10-14T18:32:43.389Z,21.21
2022-10-14T18:35:10.215Z,21.06
2022-10-14T18:37:36.754Z,21.04
2022-10-14T18:40:03.740Z,20.93
2022-10-14T18:42:30.378Z,20.94
2022-10-14T18:44:59.045Z,20.97
2022-10-14T18:47:25.712Z,20.89
2022-10-14T18:49:52.310Z,20.78
2022-10-14T18:52:20.794Z,20.82
2022-10-14T18:54:47.607Z,20.73
2022-10-14T18:57:14.932Z,20.77
2022-10-14T18:59:41.791Z,20.92
2022-10-14T19:02:12.568Z,20.78
2022-10-14T19:04:39.245Z,20.80
2022-10-14T19:07:08.442Z,20.67
2022-10-14T19:09:35.174Z,20.68
2022-10-14T19:12:21.864Z,20.65
2022-10-14T19:14:48.725Z,20.56
2022-10-14T19:17:15.362Z,20.49
2022-10-14T19:19:42.460Z,20.36
2022-10-14T19:22:10.442Z,20.41
2022-10-14T19:24:36.934Z,20.32
2022-10-14T19:27:03.525Z,20.29
2022-10-14T19:29:30.053Z,20.37
2022-10-14T19:31:57.200Z,20.24
2022-10-14T19:34:26.924Z,20.27
2022-10-14T19:36:53.881Z,20.09
2022-10-14T19:39:20.406Z,20.08
2022-10-14T19:41:47.364Z,20.09
2022-10-14T19:44:15.103Z,20.16
2022-10-14T19:46:41.782Z,20.19
2022-10-14T19:49:11.197Z,20.11
2022-10-14T19:51:38.513Z,20.00
2022-10-14T19:54:05.239Z,20.02
2022-10-14T19:56:31.762Z,19.98
2022-10-14T19:58:58.950Z,19.96
2022-10-14T20:01:27.929Z,19.95
2022-10-14T20:03:54.569Z,19.90
2022-10-14T20:06:22.086Z,19.91
2022-10-14T20:08:49.801Z,19.74
2022-10-14T20:11:18.529Z,19.85
2022-10-14T20:13:45.469Z,19.73
2022-10-14T20:16:13.016Z,19.82
2022-10-14T20:18:39.624Z,19.73
2022-10-14T20:21:07.410Z,19.63
2022-10-14T20:23:35.130Z,19.68
2022-10-14T20:26:03.216Z,19.70
2022-10-14T20:28:29.903Z,19.65
2022-10-14T20:30:57.408Z,19.74
2022-10-14T20:33:24.632Z,19.65
2022-10-14T20:36:06.240Z,19.70
2022-10-14T20:38:33.876Z,19.70
2022-10-14T20:41:06.759Z,19.62
2022-10-14T20:43:33.394Z,19.67
2022-10-14T20:46:00.156Z,19.50
2022-10-14T20:48:26.724Z,19.53
2022-10-14T20:50:53.268Z,19.51
2022-10-14T20:53:19.905Z,19.56
2022-10-14T20:55:46.469Z,19.49
2022-10-14T20:58:12.968Z,19.48
2022-10-14T21:00:39.536Z,19.35
2022-10-14T21:03:06.163Z,19.40
2022-10-14T21:05:37.035Z,19.46
2022-10-14T21:08:04.474Z,19.33
2022-10-14T21:10:30.974Z,19.24
2022-10-14T21:12:57.530Z,19.32
2022-10-14T21:15:26.783Z,19.23
2022-10-14T21:17:53.298Z,19.21
2022-10-14T21:20:19.879Z,19.18
2022-10-14T21:22:46.468Z,19.09
2022-10-14T21:25:13.022Z,19.14
2022-10-14T21:27:39.535Z,19.12
2022-10-14T21:30:06.771Z,19.13
2022-10-14T21:32:33.278Z,19.01
2022-10-14T21:34:59.884Z,19.13
2022-10-14T21:37:26.386Z,19.11
2022-10-14T21:39:52.915Z,19.07
2022-10-14T21:42:19.715Z,19.09
2022-10-14T21:44:46.291Z,18.95
2022-10-14T21:47:12.872Z,19.00
2022-10-14T21:49:39.467Z,18.93
2022-10-14T21:52:06.268Z,18.90
2022-10-14T21:54:32.770Z,18.88
2022-10-14T21:56:59.297Z,18.82
2022-10-14T21:59:25.834Z,18.80
2022-10-14T22:01:56.361Z,18.83
2022-10-14T22:04:22.910Z,18.77
2022-10-14T22:06:49.419Z,18.74
2022-10-14T22:09:15.940Z,18.68
2022-10-14T22:11:42.532Z,18.71
2022-10-14T22:14:14.878Z,18.75
2022-10-14T22:16:41.479Z,18.73
2022-10-14T22:19:08.098Z,18.74
2022-10-14T22:21:36.448Z,18.68
2022-10-14T22:24:03.625Z,18.70
2022-10-14T22:26:30.889Z,18.73
2022-10-14T22:28:58.944Z,18.70
2022-10-14T22:31:25.988Z,18.67
2022-10-14T22:33:52.647Z,18.65
2022-10-14T22:36:23.837Z,18.60
2022-10-14T22:38:52.300Z,18.54
2022-10-14T22:41:19.968Z,18.51
2022-10-14T22:43:51.703Z,18.56
2022-10-14T22:46:20.351Z,18.57
2022-10-14T22:48:50.789Z,18.47
2022-10-14T22:51:19.135Z,18.49
2022-10-14T22:53:46.821Z,18.46
2022-10-14T22:56:16.031Z,18.48
2022-10-14T22:58:43.085Z,18.48
2022-10-14T23:01:15.257Z,18.44
2022-10-14T23:03:42.527Z,18.45
2022-10-14T23:06:11.655Z,18.35
2022-10-14T23:08:38.589Z,18.40
2022-10-14T23:11:06.250Z,18.36
2022-10-14T23:13:33.399Z,18.37
2022-10-14T23:16:05.872Z,18.35
2022-10-14T23:18:35.073Z,18.33
2022-10-14T23:21:13.546Z,18.33
2022-10-14T23:23:40.181Z,18.27
2022-10-14T23:26:09.607Z,18.29
2022-10-14T23:28:36.494Z,18.22
2022-10-14T23:31:15.587Z,18.21
2022-10-14T23:33:42.379Z,18.14
2022-10-14T23:36:11.598Z,18.19
2022-10-14T23:38:39.292Z,18.14
2022-10-14T23:41:06.772Z,18.16
2022-10-14T23:43:33.480Z,18.10
2022-10-14T23:46:00.122Z,18.08
2022-10-14T23:48:27.050Z,18.10
2022-10-14T23:50:53.598Z,18.04
2022-10-14T23:53:20.412Z,18.04
2022-10-14T23:55:47.317Z,17.97
2022-10-14T23:58:13.866Z,17.92
